sensor_id;sensor_type;location;lat;lon;timestamp;temperature;humidity
3136;DHT22;1578;47.658;9.922;2023-11-22T19:28:43;1.30;99.90
3136;DHT22;1578;47.658;9.922;2023-11-22T19:31:11;1.30;99.90
3136;DHT22;1578;47.658;9.922;2023-11-22T19:33:37;1.40;99.90
3136;DHT22;1578;47.658;9.922;2023-11-22T19:36:03;1.60;99.90
3136;DHT22;1578;47.658;9.922;2023-11-22T19:38:29;1.70;99.90
3136;DHT22;1578;47.658;9.922;2023-11-22T19:40:56;1.80;99.90
3136;DHT22;1578;47.658;9.922;2023-11-22T19:43:22;1.80;99.80
3136;DHT22;1578;47.658;9.922;2023-11-22T19:45:48;2.00;99.40
3136;DHT22;1578;47.658;9.922;2023-11-22T19:48:17;2.00;98.20
3136;DHT22;1578;47.658;9.922;2023-11-22T19:50:42;2.10;98.40
3136;DHT22;1578;47.658;9.922;2023-11-22T19:53:09;2.20;97.50
3136;DHT22;1578;47.658;9.922;2023-11-22T19:55:35;2.30;96.50
3136;DHT22;1578;47.658;9.922;2023-11-22T19:58:01;2.40;95.50
3136;DHT22;1578;47.658;9.922;2023-11-22T20:00:27;2.40;94.40
3136;DHT22;1578;47.658;9.922;2023-11-22T20:02:54;2.50;93.70
3136;DHT22;1578;47.658;9.922;2023-11-22T20:05:20;2.50;93.60
3136;DHT22;1578;47.658;9.922;2023-11-22T20:07:46;2.60;92.40
3136;DHT22;1578;47.658;9.922;2023-11-22T20:10:13;2.50;92.00
3136;DHT22;1578;47.658;9.922;2023-11-22T20:12:39;2.60;91.10
3136;DHT22;1578;47.658;9.922;2023-11-22T20:15:07;2.60;90.70
3136;DHT22;1578;47.658;9.922;2023-11-22T20:17:33;2.60;90.60
3136;DHT22;1578;47.658;9.922;2023-11-22T20:19:59;2.70;88.90
3136;DHT22;1578;47.658;9.922;2023-11-22T20:22:26;2.60;89.70
3136;DHT22;1578;47.658;9.922;2023-11-22T20:24:52;2.60;87.10
3136;DHT22;1578;47.658;9.922;2023-11-22T20:27:19;2.60;88.20
3136;DHT22;1578;47.658;9.922;2023-11-22T20:29:45;2.70;89.10
3136;DHT22;1578;47.658;9.922;2023-11-22T20:32:11;2.70;88.50
3136;DHT22;1578;47.658;9.922;2023-11-22T20:34:37;2.70;86.40
3136;DHT22;1578;47.658;9.922;2023-11-22T20:37:04;2.70;88.40
3136;DHT22;1578;47.658;9.922;2023-11-22T20:39:32;2.70;88.50
3136;DHT22;1578;47.658;9.922;2023-11-22T20:41:59;2.80;88.50
3136;DHT22;1578;47.658;9.922;2023-11-22T20:44:25;2.80;86.70
3136;DHT22;1578;47.658;9.922;2023-11-22T20:46:50;2.70;85.60
3136;DHT22;1578;47.658;9.922;2023-11-22T20:49:17;2.60;87.50
3136;DHT22;1578;47.658;9.922;2023-11-22T20:51:43;2.70;88.70
3136;DHT22;1578;47.658;9.922;2023-11-22T20:54:10;2.70;90.30
3136;DHT22;1578;47.658;9.922;2023-11-22T20:56:35;2.70;89.40
3136;DHT22;1578;47.658;9.922;2023-11-22T20:59:01;2.70;89.20
3136;DHT22;1578;47.658;9.922;2023-11-22T21:01:27;2.70;87.00
3136;DHT22;1578;47.658;9.922;2023-11-22T21:03:53;2.70;88.70
3136;DHT22;1578;47.658;9.922;2023-11-22T21:06:19;2.60;90.20
3136;DHT22;1578;47.658;9.922;2023-11-22T21:08:45;2.50;91.20
3136;DHT22;1578;47.658;9.922;2023-11-22T21:11:13;2.40;91.90
3136;DHT22;1578;47.658;9.922;2023-11-22T21:13:39;2.30;92.60
3136;DHT22;1578;47.658;9.922;2023-11-22T21:16:05;2.40;93.70
3136;DHT22;1578;47.658;9.922;2023-11-22T21:18:32;2.40;93.30
3136;DHT22;1578;47.658;9.922;2023-11-22T21:20:57;2.40;92.80
3136;DHT22;1578;47.658;9.922;2023-11-22T21:23:23;2.40;92.00
3136;DHT22;1578;47.658;9.922;2023-11-22T21:25:50;2.40;91.60
3136;DHT22;1578;47.658;9.922;2023-11-22T21:28:18;2.30;91.30
3136;DHT22;1578;47.658;9.922;2023-11-22T21:30:44;2.20;91.20
3136;DHT22;1578;47.658;9.922;2023-11-22T21:33:11;2.10;90.80
3136;DHT22;1578;47.658;9.922;2023-11-22T21:35:37;2.10;91.20
3136;DHT22;1578;47.658;9.922;2023-11-22T21:38:02;2.10;91.20
3136;DHT22;1578;47.658;9.922;2023-11-22T21:40:28;2.20;91.20
3136;DHT22;1578;47.658;9.922;2023-11-22T21:42:54;2.30;90.80
3136;DHT22;1578;47.658;9.922;2023-11-22T21:45:19;2.20;89.80
3136;DHT22;1578;47.658;9.922;2023-11-22T21:47:45;2.20;90.10
3136;DHT22;1578;47.658;9.922;2023-11-22T21:50:12;2.10;90.10
3136;DHT22;1578;47.658;9.922;2023-11-22T21:52:41;1.90;91.30
3136;DHT22;1578;47.658;9.922;2023-11-22T21:55:08;1.80;92.40
3136;DHT22;1578;47.658;9.922;2023-11-22T21:57:35;1.70;93.50
3136;DHT22;1578;47.658;9.922;2023-11-22T22:00:00;1.60;94.30
3136;DHT22;1578;47.658;9.922;2023-11-22T22:02:26;1.60;94.60
3136;DHT22;1578;47.658;9.922;2023-11-22T22:04:52;1.60;95.50
3136;DHT22;1578;47.658;9.922;2023-11-22T22:07:18;1.60;95.50
3136;DHT22;1578;47.658;9.922;2023-11-22T22:09:43;1.60;95.60
3136;DHT22;1578;47.658;9.922;2023-11-22T22:12:09;1.60;95.50
3136;DHT22;1578;47.658;9.922;2023-11-22T22:14:35;1.60;95.50
3136;DHT22;1578;47.658;9.922;2023-11-22T22:17:00;1.60;95.50
3136;DHT22;1578;47.658;9.922;2023-11-22T22:19:28;1.60;95.90
3136;DHT22;1578;47.658;9.922;2023-11-22T22:21:54;1.60;96.00
3136;DHT22;1578;47.658;9.922;2023-11-22T22:24:20;1.70;96.70
3136;DHT22;1578;47.658;9.922;2023-11-22T22:26:46;1.80;96.70
3136;DHT22;1578;47.658;9.922;2023-11-22T22:29:11;1.90;96.20
3136;DHT22;1578;47.658;9.922;2023-11-22T22:31:39;1.90;94.90
3136;DHT22;1578;47.658;9.922;2023-11-22T22:34:05;1.90;94.40
3136;DHT22;1578;47.658;9.922;2023-11-22T22:36:31;1.90;94.50
3136;DHT22;1578;47.658;9.922;2023-11-22T22:38:56;1.90;93.70
3136;DHT22;1578;47.658;9.922;2023-11-22T22:41:22;1.90;94.00
3136;DHT22;1578;47.658;9.922;2023-11-22T22:43:48;1.80;94.40
3136;DHT22;1578;47.658;9.922;2023-11-22T22:46:15;1.80;94.90
3136;DHT22;1578;47.658;9.922;2023-11-22T22:48:42;1.90;95.50
3136;DHT22;1578;47.658;9.922;2023-11-22T22:51:19;1.90;95.20
3136;DHT22;1578;47.658;9.922;2023-11-22T22:53:45;1.90;94.80
3136;DHT22;1578;47.658;9.922;2023-11-22T22:56:17;1.90;95.20
3136;DHT22;1578;47.658;9.922;2023-11-22T22:58:43;2.00;95.70
3136;DHT22;1578;47.658;9.922;2023-11-22T23:01:10;2.10;95.80
3136;DHT22;1578;47.658;9.922;2023-11-22T23:03:36;2.20;95.90
3136;DHT22;1578;47.658;9.922;2023-11-22T23:06:03;2.30;95.10
3136;DHT22;1578;47.658;9.922;2023-11-22T23:08:29;2.30;94.30
3136;DHT22;1578;47.658;9.922;2023-11-22T23:10:55;2.40;94.10
3136;DHT22;1578;47.658;9.922;2023-11-22T23:13:21;2.50;93.60
3136;DHT22;1578;47.658;9.922;2023-11-22T23:15:47;2.50;92.70
3136;DHT22;1578;47.658;9.922;2023-11-22T23:18:12;2.50;91.90
3136;DHT22;1578;47.658;9.922;2023-11-22T23:20:38;2.50;91.30
3136;DHT22;1578;47.658;9.922;2023-11-22T23:23:05;2.50;91.30
3136;DHT22;1578;47.658;9.922;2023-11-22T23:25:30;2.60;91.00
3136;DHT22;1578;47.658;9.922;2023-11-22T23:27:56;2.60;90.30
3136;DHT22;1578;47.658;9.922;2023-11-22T23:30:22;2.60;90.10
3136;DHT22;1578;47.658;9.922;2023-11-22T23:32:47;2.50;89.50
3136;DHT22;1578;47.658;9.922;2023-11-22T23:35:13;2.50;88.50
3136;DHT22;1578;47.658;9.922;2023-11-22T23:37:41;2.50;89.00
3136;DHT22;1578;47.658;9.922;2023-11-22T23:40:10;2.40;89.30
3136;DHT22;1578;47.658;9.922;2023-11-22T23:42:41;2.40;90.10
3136;DHT22;1578;47.658;9.922;2023-11-22T23:45:08;2.40;90.10
3136;DHT22;1578;47.658;9.922;2023-11-22T23:47:37;2.50;90.30
3136;DHT22;1578;47.658;9.922;2023-11-22T23:50:03;2.50;90.40
3136;DHT22;1578;47.658;9.922;2023-11-22T23:52:30;2.60;90.50
3136;DHT22;1578;47.658;9.922;2023-11-22T23:54:56;2.50;90.20
3136;DHT22;1578;47.658;9.922;2023-11-22T23:57:23;2.60;90.20
3136;DHT22;1578;47.658;9.922;2023-11-22T23:59:50;2.50;89.70
